createdAt,value
2023-03-12T00:02:05.512Z,4.80
2023-03-12T00:05:02.752Z,5.13
2023-03-12T00:07:59.956Z,4.65
2023-03-12T00:10:56.782Z,4.95
2023-03-12T00:13:56.703Z,5.13
2023-03-12T00:16:53.557Z,4.32
2023-03-12T00:19:53.953Z,4.65
2023-03-12T00:25:47.575Z,4.60
2023-03-12T00:28:44.596Z,3.80
2023-03-12T00:31:41.464Z,4.43
2023-03-12T00:34:38.333Z,4.50
2023-03-12T00:37:38.232Z,4.38
2023-03-12T00:40:35.149Z,3.75
2023-03-12T00:43:32.017Z,4.20
2023-03-12T00:46:29.121Z,3.17
2023-03-12T00:49:25.948Z,3.45
2023-03-12T00:52:22.834Z,3.25
2023-03-12T00:55:19.632Z,3.65
2023-03-12T00:58:16.491Z,3.70
2023-03-12T01:01:13.463Z,3.70
2023-03-12T01:04:11.053Z,4.47
2023-03-12T01:07:07.951Z,5.00
2023-03-12T01:10:05.634Z,4.57
2023-03-12T01:13:02.597Z,3.90
2023-03-12T01:15:59.449Z,4.50
2023-03-12T01:19:01.467Z,3.97
2023-03-12T01:21:58.278Z,3.35
2023-03-12T01:24:55.076Z,3.10
2023-03-12T01:27:52.729Z,3.47
2023-03-12T01:30:49.883Z,4.18
2023-03-12T01:33:52.160Z,3.83
2023-03-12T01:36:48.977Z,3.60
2023-03-12T01:39:45.778Z,3.97
2023-03-12T01:42:42.632Z,2.78
2023-03-12T01:46:02.796Z,3.50
2023-03-12T01:49:15.942Z,3.05
2023-03-12T01:52:27.379Z,2.70
2023-03-12T01:55:24.593Z,2.97
2023-03-12T01:58:22.205Z,3.67
2023-03-12T02:01:21.793Z,2.90
2023-03-12T02:04:21.754Z,3.35
2023-03-12T02:07:18.814Z,2.20
2023-03-12T02:10:17.044Z,2.65
2023-03-12T02:13:14.176Z,2.97
2023-03-12T02:16:11.033Z,2.80
2023-03-12T02:19:27.512Z,2.22
2023-03-12T02:22:25.106Z,2.42
2023-03-12T02:25:51.465Z,2.50
2023-03-12T02:28:50.406Z,2.30
2023-03-12T02:31:55.393Z,2.35
2023-03-12T02:34:52.278Z,2.13
2023-03-12T02:37:54.942Z,2.03
2023-03-12T02:40:53.054Z,2.45
2023-03-12T02:44:00.563Z,1.77
2023-03-12T02:47:00.784Z,1.98
2023-03-12T02:49:57.600Z,1.80
2023-03-12T02:52:54.496Z,2.05
2023-03-12T02:55:51.368Z,1.80
2023-03-12T02:58:48.466Z,1.88
2023-03-12T03:01:45.625Z,2.03
2023-03-12T03:04:42.517Z,1.60
2023-03-12T03:07:39.842Z,1.90
2023-03-12T03:10:36.650Z,2.22
2023-03-12T03:13:33.933Z,1.70
2023-03-12T03:16:30.803Z,2.25
2023-03-12T03:19:27.632Z,2.10
2023-03-12T03:22:24.528Z,2.22
2023-03-12T03:25:23.140Z,1.73
2023-03-12T03:28:22.715Z,1.98
2023-03-12T03:31:20.322Z,1.93
2023-03-12T03:34:17.176Z,1.90
2023-03-12T03:37:14.058Z,1.92
2023-03-12T03:40:12.323Z,1.90
2023-03-12T03:43:09.257Z,1.85
2023-03-12T03:46:06.437Z,2.17
2023-03-12T03:49:03.497Z,1.80
2023-03-12T03:52:00.333Z,1.58
2023-03-12T03:54:57.193Z,1.23
2023-03-12T03:57:54.022Z,1.77
2023-03-12T04:00:51.018Z,1.80
2023-03-12T04:03:47.839Z,1.60
2023-03-12T04:06:44.646Z,1.65
2023-03-12T04:09:41.465Z,2.10
2023-03-12T04:12:38.289Z,1.70
2023-03-12T04:15:35.124Z,1.60
2023-03-12T04:18:32.346Z,1.98
2023-03-12T04:21:29.309Z,1.83
2023-03-12T04:24:26.126Z,1.80
2023-03-12T04:27:22.952Z,1.65
2023-03-12T04:30:19.812Z,1.52
2023-03-12T04:33:16.628Z,1.85
2023-03-12T04:36:16.169Z,2.25
2023-03-12T04:39:14.299Z,1.90
2023-03-12T04:42:11.587Z,1.75
2023-03-12T04:45:10.262Z,2.30
2023-03-12T04:48:07.105Z,3.35
2023-03-12T04:51:05.080Z,3.20
2023-03-12T04:54:02.006Z,2.88
2023-03-12T04:56:58.847Z,2.30
2023-03-12T04:59:55.715Z,2.85
2023-03-12T05:02:53.221Z,2.97
2023-03-12T05:05:50.058Z,2.45
2023-03-12T05:08:47.851Z,2.80
2023-03-12T05:11:44.671Z,3.30
2023-03-12T05:14:41.462Z,2.40
2023-03-12T05:17:38.324Z,2.88
2023-03-12T05:20:35.158Z,2.70
2023-03-12T05:23:32.255Z,2.75
2023-03-12T05:26:32.861Z,3.28
2023-03-12T05:29:35.283Z,2.80
2023-03-12T05:32:32.232Z,2.95
2023-03-12T05:35:29.047Z,3.33
2023-03-12T05:38:25.881Z,3.83
2023-03-12T05:41:27.523Z,3.20
2023-03-12T05:44:25.192Z,3.05
2023-03-12T05:47:22.359Z,2.38
2023-03-12T05:50:19.230Z,2.40
2023-03-12T05:53:16.073Z,2.72
2023-03-12T05:56:17.096Z,3.15
2023-03-12T05:59:14.494Z,2.75
2023-03-12T06:02:11.950Z,2.65
2023-03-12T06:05:12.417Z,2.17
2023-03-12T06:11:06.236Z,1.90
2023-03-12T06:14:03.846Z,2.90
2023-03-12T06:17:00.703Z,3.25
2023-03-12T06:19:57.791Z,3.65
2023-03-12T06:22:54.614Z,3.75
2023-03-12T06:25:51.404Z,6.18
2023-03-12T06:28:50.703Z,5.97
2023-03-12T06:31:48.319Z,5.22
2023-03-12T06:34:45.520Z,3.03
2023-03-12T06:37:42.367Z,3.90
2023-03-12T06:40:39.213Z,3.88
2023-03-12T06:43:37.706Z,2.80
2023-03-12T06:46:34.691Z,2.60
2023-03-12T06:49:33.279Z,2.70
2023-03-12T06:52:30.133Z,3.55
2023-03-12T06:55:27.030Z,6.00
2023-03-12T06:58:24.309Z,8.70
2023-03-12T07:01:21.172Z,6.47
2023-03-12T07:04:18.109Z,5.70
2023-03-12T07:07:16.993Z,5.88
2023-03-12T07:10:13.802Z,5.80
2023-03-12T07:13:11.242Z,11.10
2023-03-12T07:16:08.568Z,13.25
2023-03-12T07:19:05.514Z,15.20
2023-03-12T07:22:02.401Z,16.73
2023-03-12T07:24:59.292Z,25.75
2023-03-12T07:27:56.124Z,30.42
2023-03-12T07:30:53.014Z,14.18
2023-03-12T07:33:53.405Z,16.17
2023-03-12T07:39:51.306Z,9.90
2023-03-12T07:42:48.407Z,12.38
2023-03-12T07:45:45.812Z,5.50
2023-03-12T07:48:44.279Z,4.35
2023-03-12T07:51:41.358Z,4.60
2023-03-12T07:54:39.147Z,3.50
2023-03-12T07:57:36.434Z,3.42
2023-03-12T08:00:33.483Z,3.13
2023-03-12T08:03:30.889Z,4.07
2023-03-12T08:06:29.256Z,3.70
2023-03-12T08:09:26.078Z,2.67
2023-03-12T08:12:23.014Z,3.60
2023-03-12T08:15:20.317Z,2.80
2023-03-12T08:18:17.931Z,2.95
2023-03-12T08:21:16.640Z,2.50
2023-03-12T08:24:13.577Z,3.67
2023-03-12T08:27:12.147Z,3.35
2023-03-12T08:30:09.988Z,2.78
2023-03-12T08:33:07.006Z,3.80
2023-03-12T08:36:04.960Z,4.28
2023-03-12T08:39:02.016Z,4.47
2023-03-12T08:41:58.975Z,3.25
2023-03-12T08:44:56.476Z,2.40
2023-03-12T08:47:53.427Z,5.50
2023-03-12T08:50:50.906Z,3.83
2023-03-12T08:53:48.198Z,3.42
2023-03-12T08:56:46.581Z,4.88
2023-03-12T08:59:43.591Z,4.03
2023-03-12T09:02:40.758Z,3.63
2023-03-12T09:05:37.594Z,3.72
2023-03-12T09:08:34.489Z,5.95
2023-03-12T09:11:36.212Z,4.22
2023-03-12T09:15:02.143Z,5.00
2023-03-12T09:17:50.640Z,3.95
2023-03-12T09:20:47.466Z,3.13
2023-03-12T09:23:44.476Z,3.28
2023-03-12T09:26:41.372Z,3.08
2023-03-12T09:29:49.683Z,5.95
2023-03-12T09:32:54.094Z,4.80
2023-03-12T09:35:57.840Z,6.60
2023-03-12T09:38:55.092Z,4.82
2023-03-12T09:41:53.071Z,5.15
2023-03-12T09:44:57.438Z,3.85
2023-03-12T09:47:58.732Z,3.80
2023-03-12T09:50:55.981Z,3.83
2023-03-12T09:53:58.654Z,3.28
2023-03-12T09:57:00.629Z,4.53
2023-03-12T09:59:57.826Z,3.95
2023-03-12T10:03:06.625Z,3.88
2023-03-12T10:06:24.989Z,5.30
2023-03-12T10:09:59.225Z,5.70
2023-03-12T10:13:28.801Z,2.83
2023-03-12T10:16:50.170Z,2.40
2023-03-12T10:20:25.588Z,2.90
2023-03-12T10:24:13.525Z,2.40
2023-03-12T10:27:17.049Z,3.30
2023-03-12T10:30:26.799Z,3.53
2023-03-12T10:33:33.604Z,2.25
2023-03-12T10:36:40.249Z,2.55
2023-03-12T10:39:37.238Z,2.60
2023-03-12T10:42:34.242Z,3.50
2023-03-12T10:46:08.490Z,2.20
2023-03-12T10:49:23.541Z,3.33
2023-03-12T10:52:23.262Z,2.75
2023-03-12T10:55:30.690Z,3.38
2023-03-12T10:58:34.005Z,3.08
2023-03-12T11:01:32.061Z,2.70
2023-03-12T11:04:32.359Z,2.83
2023-03-12T11:07:35.399Z,2.33
2023-03-12T11:10:43.588Z,2.72
2023-03-12T11:13:42.221Z,3.22
2023-03-12T11:16:40.090Z,2.97
2023-03-12T11:19:37.611Z,6.65
2023-03-12T11:22:35.408Z,3.58
2023-03-12T11:25:32.302Z,2.92
2023-03-12T11:28:41.379Z,3.67
2023-03-12T11:31:47.223Z,3.83
2023-03-12T11:34:49.433Z,3.42
2023-03-12T11:38:17.442Z,3.85
2023-03-12T11:41:59.664Z,3.85
2023-03-12T11:45:15.353Z,4.07
2023-03-12T11:48:37.094Z,4.28
2023-03-12T11:52:15.134Z,3.80
2023-03-12T11:55:38.215Z,3.92
2023-03-12T11:58:51.325Z,3.83
2023-03-12T12:01:59.984Z,4.25
2023-03-12T12:05:34.761Z,3.30
2023-03-12T12:09:02.582Z,5.60
2023-03-12T12:12:33.895Z,4.47
2023-03-12T12:15:54.354Z,6.70
2023-03-12T12:19:38.007Z,5.78
2023-03-12T12:22:59.825Z,6.00
2023-03-12T12:26:13.246Z,5.53
2023-03-12T12:30:12.315Z,7.05
2023-03-12T12:33:52.214Z,8.85
2023-03-12T12:36:58.869Z,11.43
2023-03-12T12:40:15.752Z,6.53
2023-03-12T12:43:48.456Z,6.70
2023-03-12T12:46:52.352Z,8.02
2023-03-12T12:49:54.743Z,7.97
2023-03-12T12:53:25.315Z,6.47
2023-03-12T12:56:44.466Z,8.77
2023-03-12T12:59:52.256Z,13.07
2023-03-12T13:02:50.839Z,4.95
2023-03-12T13:06:04.970Z,5.78
2023-03-12T13:09:15.301Z,6.60
2023-03-12T13:12:25.473Z,6.75
2023-03-12T13:15:28.247Z,6.55
2023-03-12T13:18:28.354Z,6.20
2023-03-12T13:21:51.852Z,5.18
2023-03-12T13:25:29.321Z,6.18
2023-03-12T13:28:26.439Z,6.63
2023-03-12T13:31:29.585Z,8.95
2023-03-12T13:34:28.141Z,6.05
2023-03-12T13:37:52.626Z,5.28
2023-03-12T13:41:02.153Z,5.82
2023-03-12T13:43:59.612Z,11.82
2023-03-12T13:47:27.110Z,7.78
2023-03-12T13:50:24.306Z,6.53
2023-03-12T13:53:35.714Z,5.90
2023-03-12T13:56:33.939Z,10.25
2023-03-12T13:59:41.947Z,17.25
2023-03-12T14:02:51.765Z,21.65
2023-03-12T14:06:14.176Z,18.30
2023-03-12T14:09:51.959Z,5.43
2023-03-12T14:13:02.256Z,5.00
2023-03-12T14:16:25.931Z,9.00
2023-03-12T14:19:33.281Z,5.78
2023-03-12T14:22:34.809Z,4.78
2023-03-12T14:25:44.527Z,5.93
2023-03-12T14:28:42.229Z,5.57
2023-03-12T14:31:40.256Z,5.43
2023-03-12T14:35:08.238Z,5.65
2023-03-12T14:38:16.669Z,3.92
2023-03-12T14:41:24.182Z,5.85
2023-03-12T14:44:28.240Z,4.20
2023-03-12T14:47:25.254Z,4.40
2023-03-12T14:50:37.210Z,4.45
2023-03-12T14:53:39.731Z,5.05
2023-03-12T14:56:36.647Z,3.65
2023-03-12T14:59:38.933Z,3.50
2023-03-12T15:02:38.070Z,3.28
2023-03-12T15:05:36.172Z,3.25
2023-03-12T15:08:44.876Z,4.25
2023-03-12T15:11:41.718Z,3.55
2023-03-12T15:14:42.110Z,3.63
2023-03-12T15:17:39.153Z,3.42
2023-03-12T15:20:36.395Z,4.78
2023-03-12T15:23:37.820Z,6.85
2023-03-12T15:26:38.025Z,3.20
2023-03-12T15:29:41.529Z,3.63
2023-03-12T15:32:38.686Z,3.50
2023-03-12T15:35:40.060Z,4.60
2023-03-12T15:38:38.362Z,4.18
2023-03-12T15:41:49.134Z,3.58
2023-03-12T15:47:49.670Z,3.25
2023-03-12T15:50:46.593Z,11.68
2023-03-12T15:53:43.537Z,4.53
2023-03-12T15:56:40.420Z,5.50
2023-03-12T15:59:37.348Z,8.10
2023-03-12T16:02:40.351Z,5.90
2023-03-12T16:05:39.935Z,3.05
2023-03-12T16:09:03.434Z,3.20
2023-03-12T16:12:00.292Z,3.22
2023-03-12T16:14:57.350Z,4.00
2023-03-12T16:17:54.220Z,7.00
2023-03-12T16:20:52.879Z,4.82
2023-03-12T16:23:49.703Z,10.35
2023-03-12T16:26:58.613Z,9.45
2023-03-12T16:29:55.644Z,19.50
2023-03-12T16:32:52.607Z,5.57
2023-03-12T16:35:49.521Z,5.95
2023-03-12T16:38:47.099Z,5.30
2023-03-12T16:41:44.230Z,5.60
2023-03-12T16:44:41.674Z,5.18
2023-03-12T16:47:40.166Z,7.40
2023-03-12T16:50:37.148Z,5.47
2023-03-12T16:53:33.970Z,5.95
2023-03-12T16:56:31.164Z,5.22
2023-03-12T16:59:31.889Z,3.80
2023-03-12T17:05:30.038Z,4.13
2023-03-12T17:08:27.383Z,4.50
2023-03-12T17:11:29.197Z,7.53
2023-03-12T17:14:29.408Z,8.25
2023-03-12T17:17:26.347Z,4.50
2023-03-12T17:20:24.462Z,8.23
2023-03-12T17:23:22.633Z,6.88
2023-03-12T17:26:19.767Z,7.60
2023-03-12T17:29:16.620Z,7.80
2023-03-12T17:32:13.466Z,11.68
2023-03-12T17:35:10.749Z,13.00
2023-03-12T17:38:08.203Z,6.97
2023-03-12T17:41:09.408Z,8.27
2023-03-12T17:44:11.822Z,10.18
2023-03-12T17:47:08.829Z,10.95
2023-03-12T17:50:07.865Z,13.93
2023-03-12T17:53:04.717Z,18.40
2023-03-12T17:56:01.872Z,14.85
2023-03-12T17:58:58.787Z,26.67
2023-03-12T18:01:55.787Z,24.33
2023-03-12T18:04:52.820Z,24.40
2023-03-12T18:07:50.985Z,26.73
2023-03-12T18:10:48.608Z,30.38
2023-03-12T18:13:48.509Z,17.05
2023-03-12T18:16:45.598Z,11.75
2023-03-12T18:19:42.513Z,17.33
2023-03-12T18:22:39.659Z,12.85
2023-03-12T18:25:38.242Z,20.60
2023-03-12T18:28:35.082Z,13.13
2023-03-12T18:31:31.932Z,11.30
2023-03-12T18:34:28.889Z,11.02
2023-03-12T18:37:25.803Z,12.68
2023-03-12T18:40:23.087Z,19.13
2023-03-12T18:43:21.811Z,15.13
2023-03-12T18:46:19.006Z,12.38
2023-03-12T18:49:15.872Z,9.95
2023-03-12T18:52:12.691Z,10.77
2023-03-12T18:55:15.419Z,10.10
2023-03-12T18:58:12.230Z,13.13
2023-03-12T19:01:09.129Z,14.23
2023-03-12T19:04:06.042Z,15.02
2023-03-12T19:07:03.265Z,13.57
2023-03-12T19:10:00.107Z,14.73
2023-03-12T19:12:56.963Z,11.25
2023-03-12T19:16:03.425Z,13.43
2023-03-12T19:19:00.381Z,9.73
2023-03-12T19:21:57.435Z,8.95
2023-03-12T19:24:55.122Z,9.18
2023-03-12T19:27:52.468Z,11.82
2023-03-12T19:30:49.794Z,11.63
2023-03-12T19:33:46.890Z,12.55
2023-03-12T19:36:44.375Z,12.30
2023-03-12T19:39:41.513Z,13.68
2023-03-12T19:42:38.720Z,13.30
2023-03-12T19:45:36.896Z,10.45
2023-03-12T19:48:33.800Z,8.57
2023-03-12T19:51:30.604Z,9.10
2023-03-12T19:54:27.711Z,9.80
2023-03-12T19:57:27.385Z,10.90
2023-03-12T20:00:24.302Z,15.68
2023-03-12T20:03:22.169Z,22.67
2023-03-12T20:06:19.043Z,13.18
2023-03-12T20:09:15.938Z,38.38
2023-03-12T20:12:12.771Z,13.85
2023-03-12T20:15:09.945Z,12.55
2023-03-12T20:18:06.810Z,13.40
2023-03-12T20:21:03.812Z,11.25
2023-03-12T20:24:02.165Z,10.23
2023-03-12T20:26:59.013Z,10.50
2023-03-12T20:29:55.910Z,32.38
2023-03-12T20:32:52.790Z,12.85
2023-03-12T20:35:50.532Z,12.05
2023-03-12T20:38:49.390Z,14.55
2023-03-12T20:41:46.242Z,12.90
2023-03-12T20:44:43.069Z,11.50
2023-03-12T20:47:40.384Z,11.35
2023-03-12T20:50:39.066Z,10.90
2023-03-12T20:53:35.906Z,12.32
2023-03-12T20:56:32.708Z,17.27
2023-03-12T20:59:29.520Z,15.80
2023-03-12T21:02:26.554Z,13.70
2023-03-12T21:05:25.051Z,15.30
2023-03-12T21:08:22.980Z,13.40
2023-03-12T21:11:19.791Z,14.80
2023-03-12T21:14:16.933Z,14.85
2023-03-12T21:17:14.710Z,12.77
2023-03-12T21:20:14.366Z,15.13
2023-03-12T21:23:11.816Z,17.83
2023-03-12T21:26:09.618Z,19.70
2023-03-12T21:29:06.680Z,14.73
2023-03-12T21:32:03.494Z,18.45
2023-03-12T21:35:00.404Z,16.35
2023-03-12T21:37:57.229Z,18.05
2023-03-12T21:40:54.280Z,15.85
2023-03-12T21:43:51.112Z,21.45
2023-03-12T21:46:47.937Z,23.05
2023-03-12T21:49:44.973Z,20.80
2023-03-12T21:52:47.670Z,20.25
2023-03-12T21:56:01.026Z,16.83
2023-03-12T21:58:58.291Z,14.30
2023-03-12T22:01:56.142Z,14.00
2023-03-12T22:04:53.171Z,11.18
2023-03-12T22:07:50.024Z,10.00
2023-03-12T22:10:47.853Z,11.82
2023-03-12T22:13:44.892Z,13.18
2023-03-12T22:16:41.717Z,17.83
2023-03-12T22:19:40.337Z,11.57
2023-03-12T22:22:38.434Z,11.83
2023-03-12T22:25:35.345Z,13.77
2023-03-12T22:28:32.792Z,7.47
2023-03-12T22:31:30.415Z,11.13
2023-03-12T22:34:27.446Z,7.80
2023-03-12T22:37:24.319Z,8.60
2023-03-12T22:40:21.187Z,9.60
2023-03-12T22:43:18.046Z,5.72
2023-03-12T22:46:16.593Z,7.15
2023-03-12T22:49:14.975Z,7.97
2023-03-12T22:52:11.796Z,6.35
2023-03-12T22:55:09.240Z,7.68
2023-03-12T22:58:06.252Z,9.48
2023-03-12T23:01:13.404Z,6.85
2023-03-12T23:04:10.221Z,7.63
2023-03-12T23:07:14.938Z,7.32
2023-03-12T23:10:14.482Z,7.63
2023-03-12T23:13:11.792Z,8.80
2023-03-12T23:16:12.579Z,8.18
2023-03-12T23:19:09.457Z,9.45
2023-03-12T23:22:07.408Z,5.53
2023-03-12T23:25:04.777Z,6.15
2023-03-12T23:28:01.620Z,5.85
2023-03-12T23:31:02.399Z,5.47
2023-03-12T23:36:56.113Z,5.60
2023-03-12T23:39:55.105Z,5.70
2023-03-12T23:42:52.110Z,6.18
2023-03-12T23:45:59.950Z,5.82
2023-03-12T23:48:57.394Z,4.18
2023-03-12T23:51:54.200Z,5.57
2023-03-12T23:54:51.409Z,5.68
2023-03-12T23:57:48.209Z,6.32
